createdAt,value
2022-07-25T00:01:58.074Z,7.50
2022-07-25T00:04:28.103Z,6.97
2022-07-25T00:06:55.954Z,4.68
2022-07-25T00:09:23.611Z,5.45
2022-07-25T00:11:51.233Z,5.13
2022-07-25T00:14:18.907Z,5.55
2022-07-25T00:16:46.653Z,6.95
2022-07-25T00:19:14.432Z,5.00
2022-07-25T00:21:42.013Z,4.45
2022-07-25T00:24:10.514Z,6.95
2022-07-25T00:26:40.445Z,5.03
2022-07-25T00:29:08.262Z,5.90
2022-07-25T00:31:36.140Z,5.07
2022-07-25T00:34:04.478Z,7.88
2022-07-25T00:36:32.273Z,7.28
2022-07-25T00:39:00.262Z,7.43
2022-07-25T00:41:27.909Z,5.43
2022-07-25T00:43:55.631Z,4.85
2022-07-25T00:46:23.902Z,7.00
2022-07-25T00:48:51.820Z,6.13
2022-07-25T00:51:19.631Z,6.63
2022-07-25T00:53:47.750Z,7.30
2022-07-25T00:56:17.075Z,7.30
2022-07-25T00:58:45.753Z,5.75
2022-07-25T01:01:13.654Z,5.22
2022-07-25T01:03:41.771Z,6.10
2022-07-25T01:06:09.411Z,6.32
2022-07-25T01:08:37.467Z,6.70
2022-07-25T01:11:05.473Z,6.35
2022-07-25T01:13:34.842Z,8.68
2022-07-25T01:16:02.593Z,5.68
2022-07-25T01:18:30.592Z,9.27
2022-07-25T01:20:58.148Z,9.07
2022-07-25T01:23:25.850Z,6.88
2022-07-25T01:25:53.469Z,7.00
2022-07-25T01:28:21.128Z,5.32
2022-07-25T01:31:21.547Z,7.78
2022-07-25T01:33:49.249Z,7.28
2022-07-25T01:36:16.931Z,6.28
2022-07-25T01:38:44.610Z,6.00
2022-07-25T01:41:12.354Z,6.15
2022-07-25T01:43:50.114Z,7.25
2022-07-25T01:46:18.096Z,11.35
2022-07-25T01:48:45.852Z,7.22
2022-07-25T01:51:13.707Z,7.03
2022-07-25T01:53:41.333Z,7.38
2022-07-25T01:56:12.251Z,9.45
2022-07-25T01:58:40.170Z,6.28
2022-07-25T02:01:07.926Z,7.60
2022-07-25T02:03:35.670Z,7.07
2022-07-25T02:06:07.170Z,6.82
2022-07-25T02:08:35.157Z,6.00
2022-07-25T02:11:02.873Z,6.97
2022-07-25T02:13:30.761Z,8.15
2022-07-25T02:15:58.290Z,5.47
2022-07-25T02:18:25.950Z,6.80
2022-07-25T02:20:53.527Z,7.03
2022-07-25T02:23:21.150Z,6.25
2022-07-25T02:25:48.809Z,5.88
2022-07-25T02:28:16.557Z,6.53
2022-07-25T02:30:44.293Z,8.52
2022-07-25T02:33:12.006Z,6.45
2022-07-25T02:35:39.731Z,6.93
2022-07-25T02:38:07.609Z,6.90
2022-07-25T02:40:35.210Z,8.70
2022-07-25T02:43:02.873Z,7.72
2022-07-25T02:45:30.429Z,6.57
2022-07-25T02:47:58.027Z,9.85
2022-07-25T02:50:25.630Z,7.10
2022-07-25T02:52:53.208Z,6.78
2022-07-25T02:55:20.808Z,6.97
2022-07-25T02:57:48.550Z,6.88
2022-07-25T03:00:16.991Z,8.20
2022-07-25T03:02:44.929Z,9.48
2022-07-25T03:05:15.026Z,7.38
2022-07-25T03:07:44.390Z,6.85
2022-07-25T03:10:14.252Z,6.85
2022-07-25T03:12:43.170Z,7.18
2022-07-25T03:15:12.726Z,7.53
2022-07-25T03:17:40.917Z,8.00
2022-07-25T03:20:09.460Z,9.43
2022-07-25T03:22:37.469Z,7.78
2022-07-25T03:25:05.745Z,8.38
2022-07-25T03:27:43.269Z,8.15
2022-07-25T03:30:12.429Z,7.30
2022-07-25T03:32:41.445Z,7.32
2022-07-25T03:35:09.715Z,7.22
2022-07-25T03:37:37.487Z,6.97
2022-07-25T03:40:05.968Z,8.10
2022-07-25T03:42:35.354Z,7.13
2022-07-25T03:45:04.069Z,6.25
2022-07-25T03:47:31.664Z,6.95
2022-07-25T03:49:59.266Z,6.70
2022-07-25T03:52:26.850Z,7.82
2022-07-25T03:54:54.368Z,7.57
2022-07-25T03:57:21.989Z,11.05
2022-07-25T03:59:49.494Z,10.95
2022-07-25T04:02:17.142Z,7.95
2022-07-25T04:04:44.813Z,10.02
2022-07-25T04:07:12.445Z,6.70
2022-07-25T04:09:39.928Z,7.35
2022-07-25T04:12:07.649Z,7.90
2022-07-25T04:14:35.288Z,7.35
2022-07-25T04:17:02.919Z,9.50
2022-07-25T04:19:30.605Z,9.73
2022-07-25T04:21:58.209Z,6.53
2022-07-25T04:24:25.871Z,10.25
2022-07-25T04:26:53.571Z,12.73
2022-07-25T04:29:21.208Z,6.90
2022-07-25T04:31:49.032Z,7.70
2022-07-25T04:34:16.945Z,10.23
2022-07-25T04:36:44.667Z,7.43
2022-07-25T04:39:12.349Z,10.50
2022-07-25T04:41:40.171Z,10.25
2022-07-25T04:44:09.105Z,12.25
2022-07-25T04:46:37.148Z,13.98
2022-07-25T04:49:05.068Z,12.82
2022-07-25T04:51:32.726Z,20.55
2022-07-25T04:54:00.288Z,16.10
2022-07-25T04:56:27.993Z,17.20
2022-07-25T04:58:55.715Z,17.73
2022-07-25T05:01:23.424Z,10.98
2022-07-25T05:03:51.067Z,15.40
2022-07-25T05:06:19.719Z,14.82
2022-07-25T05:08:47.495Z,10.02
2022-07-25T05:11:15.207Z,6.93
2022-07-25T05:13:42.832Z,7.68
2022-07-25T05:16:10.497Z,7.00
2022-07-25T05:18:38.115Z,5.55
2022-07-25T05:21:05.751Z,6.82
2022-07-25T05:23:33.310Z,8.30
2022-07-25T05:26:02.648Z,6.25
2022-07-25T05:28:30.248Z,6.95
2022-07-25T05:30:57.908Z,6.68
2022-07-25T05:33:26.746Z,5.72
2022-07-25T05:35:54.334Z,7.13
2022-07-25T05:38:22.028Z,5.95
2022-07-25T05:40:52.393Z,6.85
2022-07-25T05:43:20.068Z,5.97
2022-07-25T05:45:47.642Z,8.65
2022-07-25T05:48:16.208Z,8.07
2022-07-25T05:50:44.014Z,7.03
2022-07-25T05:53:11.643Z,8.38
2022-07-25T05:55:40.702Z,7.90
2022-07-25T05:58:09.689Z,8.95
2022-07-25T06:00:39.350Z,9.40
2022-07-25T06:03:07.156Z,6.95
2022-07-25T06:05:34.763Z,9.57
2022-07-25T06:08:02.473Z,5.68
2022-07-25T06:10:30.043Z,7.53
2022-07-25T06:12:57.808Z,7.35
2022-07-25T06:15:26.670Z,5.95
2022-07-25T06:17:55.160Z,6.00
2022-07-25T06:20:23.482Z,6.00
2022-07-25T06:22:51.455Z,6.00
2022-07-25T06:25:19.450Z,7.28
2022-07-25T06:27:47.368Z,6.07
2022-07-25T06:30:20.190Z,7.32
2022-07-25T06:32:51.246Z,8.48
2022-07-25T06:35:19.109Z,6.15
2022-07-25T06:37:47.098Z,6.25
2022-07-25T06:40:15.386Z,6.18
2022-07-25T06:42:45.025Z,5.60
2022-07-25T06:45:14.264Z,5.90
2022-07-25T06:47:43.146Z,7.28
2022-07-25T06:50:14.388Z,6.75
2022-07-25T06:52:42.928Z,6.63
2022-07-25T06:55:11.906Z,6.63
2022-07-25T06:57:40.027Z,6.20
2022-07-25T07:00:10.804Z,5.82
2022-07-25T07:02:48.547Z,6.97
2022-07-25T07:05:16.106Z,5.32
2022-07-25T07:07:47.616Z,7.38
2022-07-25T07:10:16.886Z,9.63
2022-07-25T07:12:45.185Z,10.32
2022-07-25T07:15:13.773Z,9.02
2022-07-25T07:17:42.047Z,7.30
2022-07-25T07:20:10.436Z,5.72
2022-07-25T07:22:45.662Z,7.13
2022-07-25T07:25:15.609Z,10.02
2022-07-25T07:27:44.626Z,10.95
2022-07-25T07:30:15.003Z,5.85
2022-07-25T07:32:43.845Z,6.57
2022-07-25T07:35:12.466Z,6.97
2022-07-25T07:37:43.449Z,6.78
2022-07-25T07:40:17.866Z,9.27
2022-07-25T07:42:48.241Z,7.15
2022-07-25T07:45:23.385Z,5.90
2022-07-25T07:47:53.266Z,5.30
2022-07-25T07:50:27.103Z,5.82
2022-07-25T07:52:56.698Z,7.93
2022-07-25T07:55:42.784Z,7.50
2022-07-25T07:58:16.225Z,9.80
2022-07-25T08:03:12.999Z,7.50
2022-07-25T08:05:43.546Z,6.88
2022-07-25T08:08:13.299Z,7.38
2022-07-25T08:10:44.560Z,6.45
2022-07-25T08:13:24.241Z,7.72
2022-07-25T08:15:54.414Z,5.95
2022-07-25T08:18:22.045Z,6.40
2022-07-25T08:20:50.702Z,8.80
2022-07-25T08:23:19.884Z,7.22
2022-07-25T08:25:48.726Z,9.05
2022-07-25T08:28:16.393Z,6.63
2022-07-25T08:30:44.207Z,6.70
2022-07-25T08:33:14.761Z,7.10
2022-07-25T08:35:52.079Z,8.80
2022-07-25T08:38:24.190Z,10.10
2022-07-25T08:40:55.983Z,7.00
2022-07-25T08:43:23.926Z,6.22
2022-07-25T08:45:55.983Z,6.32
2022-07-25T08:48:26.130Z,6.22
2022-07-25T08:50:57.491Z,5.63
2022-07-25T08:53:34.602Z,6.20
2022-07-25T08:56:13.284Z,7.18
2022-07-25T08:58:44.230Z,8.32
2022-07-25T09:01:14.392Z,7.65
2022-07-25T09:03:43.461Z,6.93
2022-07-25T09:06:19.465Z,6.97
2022-07-25T09:08:58.103Z,7.85
2022-07-25T09:11:37.269Z,7.35
2022-07-25T09:14:13.101Z,12.05
2022-07-25T09:16:49.891Z,8.40
2022-07-25T09:19:20.943Z,8.10
2022-07-25T09:22:20.865Z,8.38
2022-07-25T09:24:48.786Z,6.80
2022-07-25T09:27:18.404Z,7.75
2022-07-25T09:29:46.248Z,7.18
2022-07-25T09:32:19.545Z,7.30
2022-07-25T09:37:19.010Z,8.25
2022-07-25T09:39:49.804Z,7.18
2022-07-25T09:42:26.244Z,10.00
2022-07-25T09:45:12.972Z,8.25
2022-07-25T09:48:05.003Z,7.45
2022-07-25T09:50:33.581Z,6.70
2022-07-25T09:53:02.847Z,8.20
2022-07-25T09:55:31.554Z,6.35
2022-07-25T09:57:59.341Z,9.80
2022-07-25T10:00:29.344Z,7.68
2022-07-25T10:03:18.565Z,11.45
2022-07-25T10:06:03.702Z,7.88
2022-07-25T10:08:37.284Z,8.82
2022-07-25T10:11:06.865Z,6.38
2022-07-25T10:13:36.764Z,10.52
2022-07-25T10:16:27.983Z,18.25
2022-07-25T10:18:58.523Z,8.43
2022-07-25T10:21:28.505Z,8.77
2022-07-25T10:24:10.583Z,8.85
2022-07-25T10:26:51.094Z,8.32
2022-07-25T10:29:18.866Z,9.00
2022-07-25T10:31:51.221Z,6.40
2022-07-25T10:34:33.832Z,13.18
2022-07-25T10:37:18.403Z,11.15
2022-07-25T10:39:50.024Z,40.97
2022-07-25T10:42:21.746Z,9.27
2022-07-25T10:44:57.802Z,6.95
2022-07-25T10:47:27.665Z,8.02
2022-07-25T10:50:21.598Z,11.25
2022-07-25T10:53:00.926Z,6.47
2022-07-25T10:55:29.366Z,6.57
2022-07-25T10:58:21.861Z,7.75
2022-07-25T11:00:51.474Z,8.98
2022-07-25T11:03:20.980Z,6.60
2022-07-25T11:05:49.219Z,7.18
2022-07-25T11:08:24.416Z,10.00
2022-07-25T11:10:53.744Z,10.25
2022-07-25T11:13:21.903Z,7.68
2022-07-25T11:15:50.061Z,10.30
2022-07-25T11:18:18.710Z,6.70
2022-07-25T11:20:46.463Z,7.13
2022-07-25T11:23:22.326Z,7.85
2022-07-25T11:25:51.670Z,6.13
2022-07-25T11:28:19.246Z,8.20
2022-07-25T11:30:46.824Z,8.63
2022-07-25T11:33:17.778Z,7.30
2022-07-25T11:35:45.683Z,8.25
2022-07-25T11:38:14.804Z,7.32
2022-07-25T11:40:45.691Z,7.65
2022-07-25T11:43:23.975Z,6.00
2022-07-25T11:46:18.813Z,7.03
2022-07-25T11:48:47.987Z,7.40
2022-07-25T11:51:19.098Z,8.23
2022-07-25T11:53:49.893Z,8.73
2022-07-25T11:56:41.881Z,7.60
2022-07-25T11:59:11.151Z,7.40
2022-07-25T12:01:41.244Z,6.22
2022-07-25T12:04:15.682Z,8.00
2022-07-25T12:06:48.777Z,9.77
2022-07-25T12:09:20.620Z,6.22
2022-07-25T12:11:49.707Z,9.60
2022-07-25T12:14:17.427Z,6.85
2022-07-25T12:16:45.166Z,9.57
2022-07-25T12:19:21.339Z,6.20
2022-07-25T12:21:49.025Z,18.35
2022-07-25T12:24:16.579Z,5.97
2022-07-25T12:26:44.399Z,8.50
2022-07-25T12:29:11.924Z,6.88
2022-07-25T12:31:39.723Z,8.38
2022-07-25T12:34:07.307Z,8.07
2022-07-25T12:36:41.280Z,7.13
2022-07-25T12:39:09.265Z,10.02
2022-07-25T12:41:37.126Z,6.45
2022-07-25T12:44:05.062Z,7.53
2022-07-25T12:46:32.918Z,9.00
2022-07-25T12:49:00.715Z,6.40
2022-07-25T12:51:28.359Z,7.85
2022-07-25T12:53:56.020Z,5.90
2022-07-25T12:56:23.602Z,11.93
2022-07-25T12:58:51.299Z,8.30
2022-07-25T13:01:19.236Z,7.90
2022-07-25T13:03:47.542Z,7.75
2022-07-25T13:06:15.302Z,6.18
2022-07-25T13:08:42.984Z,6.65
2022-07-25T13:11:10.529Z,7.13
2022-07-25T13:13:38.282Z,7.93
2022-07-25T13:16:06.131Z,7.15
2022-07-25T13:18:34.103Z,9.20
2022-07-25T13:21:03.704Z,9.45
2022-07-25T13:23:31.803Z,7.15
2022-07-25T13:26:00.843Z,9.00
2022-07-25T13:28:29.041Z,5.93
2022-07-25T13:30:57.203Z,6.35
2022-07-25T13:33:24.884Z,6.30
2022-07-25T13:35:52.481Z,5.90
2022-07-25T13:38:20.758Z,5.97
2022-07-25T13:40:48.503Z,7.53
2022-07-25T13:43:16.204Z,6.63
2022-07-25T13:45:43.961Z,5.50
2022-07-25T13:48:28.915Z,7.10
2022-07-25T13:50:57.952Z,6.50
2022-07-25T13:53:29.927Z,6.35
2022-07-25T13:55:59.442Z,6.82
2022-07-25T13:58:28.040Z,6.35
2022-07-25T14:00:56.139Z,5.53
2022-07-25T14:03:24.103Z,5.93
2022-07-25T14:05:52.001Z,9.98
2022-07-25T14:08:19.801Z,5.60
2022-07-25T14:10:47.901Z,7.55
2022-07-25T14:13:21.480Z,8.25
2022-07-25T14:15:49.070Z,6.03
2022-07-25T14:18:16.477Z,11.63
2022-07-25T14:20:44.165Z,6.03
2022-07-25T14:23:11.700Z,6.80
2022-07-25T14:25:39.330Z,6.03
2022-07-25T14:28:06.880Z,5.45
2022-07-25T14:30:34.741Z,12.52
2022-07-25T14:33:02.229Z,6.22
2022-07-25T14:35:32.551Z,5.10
2022-07-25T14:38:00.918Z,8.77
2022-07-25T14:40:28.475Z,5.35
2022-07-25T14:42:56.028Z,6.43
2022-07-25T14:45:23.557Z,6.22
2022-07-25T14:47:59.533Z,5.95
2022-07-25T14:50:31.567Z,5.70
2022-07-25T14:52:59.133Z,6.72
2022-07-25T14:55:27.090Z,9.13
2022-07-25T14:57:54.718Z,6.82
2022-07-25T15:00:27.586Z,6.25
2022-07-25T15:02:57.460Z,8.25
2022-07-25T15:05:25.042Z,12.20
2022-07-25T15:07:52.607Z,7.40
2022-07-25T15:10:20.151Z,7.72
2022-07-25T15:12:51.469Z,6.90
2022-07-25T15:15:25.574Z,7.68
2022-07-25T15:17:53.727Z,7.20
2022-07-25T15:20:21.507Z,7.57
2022-07-25T15:22:49.027Z,6.57
2022-07-25T15:25:50.992Z,5.82
2022-07-25T15:28:19.596Z,5.97
2022-07-25T15:30:52.037Z,5.88
2022-07-25T15:33:19.848Z,5.80
2022-07-25T15:35:48.288Z,8.48
2022-07-25T15:38:16.422Z,7.13
2022-07-25T15:40:45.528Z,5.70
2022-07-25T15:43:13.350Z,7.80
2022-07-25T15:45:44.156Z,6.03
2022-07-25T15:48:13.862Z,7.75
2022-07-25T15:50:43.626Z,5.95
2022-07-25T15:53:12.297Z,6.00
2022-07-25T15:55:41.219Z,5.68
2022-07-25T15:58:10.376Z,6.93
2022-07-25T16:00:38.681Z,8.25
2022-07-25T16:03:07.196Z,8.13
2022-07-25T16:05:35.290Z,5.47
2022-07-25T16:08:03.566Z,5.88
2022-07-25T16:10:32.777Z,8.07
2022-07-25T16:13:01.383Z,7.05
2022-07-25T16:15:29.136Z,5.95
2022-07-25T16:18:02.136Z,6.32
2022-07-25T16:20:34.021Z,12.07
2022-07-25T16:23:01.971Z,6.85
2022-07-25T16:25:30.307Z,8.63
2022-07-25T16:27:59.069Z,11.13
2022-07-25T16:30:27.927Z,7.72
2022-07-25T16:32:55.734Z,6.07
2022-07-25T16:35:23.677Z,5.15
2022-07-25T16:37:51.754Z,6.22
2022-07-25T16:40:19.294Z,5.68
2022-07-25T16:42:49.827Z,8.48
2022-07-25T16:45:17.359Z,8.77
2022-07-25T16:47:44.926Z,5.80
2022-07-25T16:50:12.411Z,6.43
2022-07-25T16:52:40.058Z,5.95
2022-07-25T16:55:07.836Z,6.80
2022-07-25T16:57:38.749Z,8.57
2022-07-25T17:00:08.937Z,5.20
2022-07-25T17:02:36.646Z,6.07
2022-07-25T17:05:04.675Z,6.43
2022-07-25T17:07:32.667Z,6.13
2022-07-25T17:10:00.205Z,7.57
2022-07-25T17:12:27.812Z,6.10
2022-07-25T17:14:55.297Z,7.32
2022-07-25T17:17:22.836Z,6.55
2022-07-25T17:19:50.252Z,5.68
2022-07-25T17:22:17.802Z,5.75
2022-07-25T17:24:45.265Z,7.47
2022-07-25T17:27:13.099Z,6.63
2022-07-25T17:29:40.625Z,5.68
2022-07-25T17:32:08.332Z,6.60
2022-07-25T17:34:35.866Z,9.02
2022-07-25T17:37:03.587Z,7.80
2022-07-25T17:39:31.455Z,6.45
2022-07-25T17:41:59.015Z,5.88
2022-07-25T17:44:27.074Z,6.15
2022-07-25T17:46:54.890Z,6.50
2022-07-25T17:49:22.524Z,8.63
2022-07-25T17:51:50.468Z,7.50
2022-07-25T17:54:18.034Z,6.38
2022-07-25T17:56:45.755Z,6.68
2022-07-25T17:59:13.885Z,5.97
2022-07-25T18:01:41.650Z,5.72
2022-07-25T18:04:09.656Z,5.65
2022-07-25T18:06:37.624Z,6.15
2022-07-25T18:09:05.221Z,6.47
2022-07-25T18:11:32.895Z,5.30
2022-07-25T18:14:00.543Z,6.13
2022-07-25T18:16:28.202Z,7.45
2022-07-25T18:18:55.906Z,6.68
2022-07-25T18:21:24.633Z,5.88
2022-07-25T18:23:52.395Z,5.20
2022-07-25T18:26:21.973Z,6.53
2022-07-25T18:28:49.824Z,5.70
2022-07-25T18:31:17.626Z,5.57
2022-07-25T18:33:45.295Z,5.07
2022-07-25T18:36:13.142Z,6.20
2022-07-25T18:38:40.854Z,8.30
2022-07-25T18:43:58.821Z,10.70
2022-07-25T18:46:30.363Z,14.50
2022-07-25T18:49:00.805Z,16.75
2022-07-25T18:51:28.482Z,18.83
2022-07-25T18:53:56.132Z,19.60
2022-07-25T18:56:23.878Z,13.63
2022-07-25T18:58:51.673Z,10.45
2022-07-25T19:01:21.182Z,11.07
2022-07-25T19:03:49.252Z,12.32
2022-07-25T19:06:17.590Z,12.15
2022-07-25T19:08:46.342Z,12.00
2022-07-25T19:11:15.548Z,19.88
2022-07-25T19:13:51.171Z,14.73
2022-07-25T19:16:19.556Z,14.80
2022-07-25T19:18:47.543Z,17.20
2022-07-25T19:21:15.694Z,14.15
2022-07-25T19:23:49.810Z,17.30
2022-07-25T19:26:19.919Z,19.67
2022-07-25T19:28:47.880Z,14.57
2022-07-25T19:31:15.749Z,15.43
2022-07-25T19:33:45.698Z,15.25
2022-07-25T19:36:14.184Z,16.30
2022-07-25T19:38:42.069Z,14.07
2022-07-25T19:41:09.742Z,14.02
2022-07-25T19:43:37.723Z,18.45
2022-07-25T19:46:05.605Z,13.70
2022-07-25T19:48:33.353Z,14.38
2022-07-25T19:51:01.190Z,9.82
2022-07-25T19:53:29.007Z,9.10
2022-07-25T19:55:56.780Z,8.25
2022-07-25T19:58:24.617Z,8.57
2022-07-25T20:00:52.351Z,8.80
2022-07-25T20:03:23.239Z,12.20
2022-07-25T20:05:52.336Z,8.55
2022-07-25T20:08:20.034Z,11.32
2022-07-25T20:10:48.517Z,10.77
2022-07-25T20:13:16.450Z,13.63
2022-07-25T20:15:44.081Z,10.18
2022-07-25T20:18:16.039Z,11.25
2022-07-25T20:20:47.807Z,8.63
2022-07-25T20:23:15.319Z,10.57
2022-07-25T20:25:43.189Z,9.35
2022-07-25T20:28:11.091Z,9.05
2022-07-25T20:30:38.789Z,10.77
2022-07-25T20:33:09.054Z,13.25
2022-07-25T20:35:38.362Z,9.90
2022-07-25T20:38:09.806Z,11.43
2022-07-25T20:40:48.246Z,11.25
2022-07-25T20:43:17.950Z,7.85
2022-07-25T20:45:47.549Z,12.10
2022-07-25T20:48:15.489Z,8.73
2022-07-25T20:50:43.589Z,7.65
2022-07-25T20:53:11.829Z,8.15
2022-07-25T20:55:39.422Z,9.48
2022-07-25T20:58:07.212Z,8.35
2022-07-25T21:00:34.926Z,12.00
2022-07-25T21:03:02.921Z,9.93
2022-07-25T21:05:30.631Z,13.48
2022-07-25T21:07:58.238Z,13.77
2022-07-25T21:10:26.368Z,9.98
2022-07-25T21:12:56.051Z,11.30
2022-07-25T21:15:24.401Z,11.00
2022-07-25T21:17:52.033Z,8.43
2022-07-25T21:20:19.456Z,13.32
2022-07-25T21:22:47.091Z,12.25
2022-07-25T21:25:14.702Z,12.45
2022-07-25T21:27:42.360Z,10.63
2022-07-25T21:30:11.761Z,8.95
2022-07-25T21:32:40.959Z,11.45
2022-07-25T21:35:09.183Z,10.25
2022-07-25T21:37:36.950Z,9.10
2022-07-25T21:40:04.990Z,10.63
2022-07-25T21:42:32.490Z,9.35
2022-07-25T21:45:00.147Z,12.25
2022-07-25T21:47:27.896Z,9.77
2022-07-25T21:50:14.236Z,10.05
2022-07-25T21:52:52.709Z,9.63
2022-07-25T21:55:21.790Z,8.23
2022-07-25T21:57:51.388Z,11.02
2022-07-25T22:00:19.870Z,10.27
2022-07-25T22:02:47.768Z,9.43
2022-07-25T22:05:17.350Z,10.00
2022-07-25T22:07:47.455Z,13.40
2022-07-25T22:10:16.621Z,9.55
2022-07-25T22:12:44.396Z,11.25
2022-07-25T22:15:13.021Z,12.95
2022-07-25T22:17:48.231Z,11.02
2022-07-25T22:20:18.672Z,11.23
2022-07-25T22:22:48.079Z,9.52
2022-07-25T22:25:16.662Z,15.80
2022-07-25T22:27:44.523Z,13.63
2022-07-25T22:30:18.265Z,8.85
2022-07-25T22:32:49.520Z,16.33
2022-07-25T22:35:17.243Z,13.32
2022-07-25T22:37:45.987Z,10.27
2022-07-25T22:40:13.739Z,11.43
2022-07-25T22:42:41.320Z,11.95
2022-07-25T22:45:09.749Z,23.27
2022-07-25T22:47:37.424Z,13.93
2022-07-25T22:50:05.981Z,14.98
2022-07-25T22:52:35.172Z,12.45
2022-07-25T22:55:02.846Z,17.70
2022-07-25T22:57:30.355Z,13.60
2022-07-25T23:00:08.111Z,11.75
2022-07-25T23:02:35.798Z,11.85
2022-07-25T23:05:05.121Z,14.60
2022-07-25T23:07:33.830Z,10.43
2022-07-25T23:10:01.505Z,15.43
2022-07-25T23:12:29.061Z,14.85
2022-07-25T23:14:56.820Z,14.45
2022-07-25T23:17:24.900Z,13.20
2022-07-25T23:19:54.689Z,13.50
2022-07-25T23:22:23.943Z,13.20
2022-07-25T23:24:51.658Z,15.18
2022-07-25T23:27:19.245Z,13.50
2022-07-25T23:29:46.990Z,14.68
2022-07-25T23:32:14.558Z,16.08
2022-07-25T23:34:42.319Z,14.45
2022-07-25T23:37:10.458Z,12.35
2022-07-25T23:39:37.908Z,15.82
2022-07-25T23:42:05.500Z,18.15
2022-07-25T23:44:33.179Z,22.80
2022-07-25T23:47:03.790Z,23.55
2022-07-25T23:49:32.558Z,26.45
2022-07-25T23:52:00.205Z,24.95
2022-07-25T23:54:27.782Z,28.38
2022-07-25T23:56:55.408Z,30.25
2022-07-25T23:59:22.988Z,33.25
